Time;durP1;ratioP1;P1;durP2;ratioP2;P2;SDS_P1;SDS_P2;PMS_P1;PMS_P2;Temp;Humidity;BMP_temperature;BMP_pressure;BME280_temperature;BME280_humidity;BME280_pressure;Samples;Min_cycle;Max_cycle;Signal;HPM_P1;HPM_P2
2021/09/03 00:00:05;;;;;;;22.13;13.90;;;;;;;12.20;100.00;101583.78;2615326;31;20613;-44
2021/09/03 00:02:32;;;;;;;20.60;13.32;;;;;;;12.14;100.00;101585.25;2614550;36;20721;-44
2021/09/03 00:05:00;;;;;;;20.90;13.85;;;;;;;12.07;100.00;101586.75;2614689;36;20067;-45
2021/09/03 00:07:27;;;;;;;23.10;13.93;;;;;;;12.28;100.00;101583.13;2616362;31;20038;-44
2021/09/03 00:09:54;;;;;;;24.00;15.18;;;;;;;12.19;100.00;101586.28;2615968;36;20026;-41
2021/09/03 00:12:22;;;;;;;20.02;12.82;;;;;;;12.17;100.00;101585.34;2616770;31;20093;-42
2021/09/03 00:14:49;;;;;;;23.55;14.65;;;;;;;12.16;100.00;101581.06;2615370;36;20061;-42
2021/09/03 00:17:17;;;;;;;27.05;15.85;;;;;;;12.17;100.00;101582.78;2615329;36;20459;-43
2021/09/03 00:19:44;;;;;;;26.50;16.00;;;;;;;12.18;100.00;101580.25;2615268;36;20034;-41
2021/09/03 00:22:11;;;;;;;19.70;14.27;;;;;;;12.27;100.00;101579.69;2615924;31;20031;-48
2021/09/03 00:24:38;;;;;;;21.10;14.07;;;;;;;11.86;100.00;101576.59;2615103;36;20052;-41
2021/09/03 00:27:05;;;;;;;26.63;15.18;;;;;;;11.76;100.00;101566.81;2615434;36;20543;-46
2021/09/03 00:29:32;;;;;;;29.67;17.45;;;;;;;11.94;100.00;101564.91;2615646;31;20031;-45
2021/09/03 00:31:59;;;;;;;33.03;18.17;;;;;;;12.02;100.00;101565.19;2615056;36;20162;-41
2021/09/03 00:34:26;;;;;;;23.90;16.50;;;;;;;11.81;100.00;101564.41;2615565;36;20424;-44
2021/09/03 00:36:54;;;;;;;35.90;19.95;;;;;;;11.93;100.00;101570.88;2616100;31;20038;-44
2021/09/03 00:39:21;;;;;;;31.73;18.15;;;;;;;12.27;100.00;101569.44;2615056;36;20038;-46
2021/09/03 00:41:49;;;;;;;33.22;20.10;;;;;;;12.37;100.00;101574.03;2614940;36;20130;-42
2021/09/03 00:44:16;;;;;;;33.38;18.52;;;;;;;12.20;100.00;101565.78;2617680;31;20065;-45
2021/09/03 00:46:43;;;;;;;30.77;18.38;;;;;;;11.96;100.00;101567.53;2615102;36;20027;-45
2021/09/03 00:49:10;;;;;;;33.67;19.75;;;;;;;11.85;100.00;101564.59;2614666;36;20042;-43
2021/09/03 00:51:38;;;;;;;35.28;18.55;;;;;;;11.94;100.00;101557.22;2616261;31;20035;-42
2021/09/03 00:54:07;;;;;;;35.67;19.33;;;;;;;11.93;100.00;101559.75;2615265;36;20068;-46
2021/09/03 00:56:35;;;;;;;37.88;20.42;;;;;;;11.75;100.00;101561.63;2615713;31;20053;-45
2021/09/03 00:59:02;;;;;;;32.13;19.30;;;;;;;11.87;100.00;101562.94;2616103;31;20450;-45
2021/09/03 01:01:29;;;;;;;40.75;21.48;;;;;;;11.63;100.00;101559.50;2614774;36;20035;-47
2021/09/03 01:03:56;;;;;;;33.42;18.92;;;;;;;11.68;100.00;101557.97;2615864;31;20068;-44
2021/09/03 01:06:24;;;;;;;35.72;20.27;;;;;;;11.62;100.00;101556.06;2614915;36;20065;-47
2021/09/03 01:08:51;;;;;;;32.08;20.20;;;;;;;11.67;100.00;101551.09;2614204;36;20051;-45
2021/09/03 01:11:18;;;;;;;32.97;20.13;;;;;;;11.56;100.00;101547.28;2615348;31;20610;-44
2021/09/03 01:13:45;;;;;;;42.65;22.73;;;;;;;11.87;100.00;101551.81;2615326;31;20853;-43
2021/09/03 01:16:12;;;;;;;38.05;21.48;;;;;;;11.76;100.00;101545.41;2615281;31;20061;-46
2021/09/03 01:18:39;;;;;;;35.17;20.70;;;;;;;11.57;100.00;101544.78;2614384;31;20038;-44
2021/09/03 01:21:07;;;;;;;34.58;21.88;;;;;;;11.34;100.00;101549.06;2615821;31;20030;-51
2021/09/03 01:23:34;;;;;;;37.85;22.35;;;;;;;11.51;100.00;101542.00;2615834;31;20049;-50
2021/09/03 01:26:04;;;;;;;34.75;21.13;;;;;;;11.44;100.00;101540.03;2615090;36;20420;-47
2021/09/03 01:28:32;;;;;;;34.53;19.77;;;;;;;11.48;100.00;101534.19;2614020;36;20057;-44
2021/09/03 01:31:00;;;;;;;31.75;19.50;;;;;;;11.43;100.00;101533.16;2613978;36;20030;-48
2021/09/03 01:33:27;;;;;;;32.78;20.15;;;;;;;11.47;100.00;101527.31;2614534;36;20037;-49
2021/09/03 01:35:54;;;;;;;31.48;20.38;;;;;;;11.41;100.00;101522.81;2615358;31;20030;-47
2021/09/03 01:38:22;;;;;;;38.42;20.92;;;;;;;11.47;100.00;101522.19;2615363;31;20596;-47
2021/09/03 01:40:49;;;;;;;41.05;22.08;;;;;;;11.42;100.00;101522.03;2614192;36;20103;-49
2021/09/03 01:43:16;;;;;;;35.90;20.80;;;;;;;11.33;100.00;101528.53;2615213;31;20069;-47
2021/09/03 01:45:44;;;;;;;40.58;22.90;;;;;;;11.34;100.00;101522.56;2614265;36;20661;-45
2021/09/03 01:48:11;;;;;;;35.40;21.00;;;;;;;11.41;100.00;101521.94;2615721;31;20046;-44
2021/09/03 01:50:38;;;;;;;32.92;19.30;;;;;;;11.47;100.00;101515.38;2614733;31;20061;-47
2021/09/03 01:53:05;;;;;;;35.45;20.45;;;;;;;11.34;100.00;101517.44;2615352;31;20060;-50
2021/09/03 01:55:32;;;;;;;31.45;20.08;;;;;;;11.34;100.00;101509.75;2614236;36;20593;-47
2021/09/03 01:57:59;;;;;;;28.38;18.15;;;;;;;11.50;100.00;101513.72;2615003;31;20104;-48
2021/09/03 02:00:26;;;;;;;30.60;19.17;;;;;;;11.34;100.00;101514.88;2614221;36;20056;-48
2021/09/03 02:02:54;;;;;;;29.30;19.02;;;;;;;11.74;100.00;101509.44;2670106;36;20061;-50
2021/09/03 02:05:21;;;;;;;35.30;19.77;;;;;;;11.53;100.00;101514.69;2614518;31;20056;-51
2021/09/03 02:07:48;;;;;;;32.47;19.55;;;;;;;11.61;100.00;101518.41;2614285;31;20082;-49
2021/09/03 02:10:15;;;;;;;30.58;20.23;;;;;;;11.43;100.00;101513.50;2614958;36;20452;-47
2021/09/03 02:12:42;;;;;;;30.17;19.95;;;;;;;11.42;100.00;101501.50;2614649;31;20054;-46
2021/09/03 02:15:10;;;;;;;28.85;19.02;;;;;;;11.42;100.00;101509.19;2613850;36;20083;-48
2021/09/03 02:17:37;;;;;;;33.60;20.23;;;;;;;11.42;100.00;101503.19;2614322;31;20034;-47
2021/09/03 02:20:05;;;;;;;28.73;18.52;;;;;;;11.52;100.00;101505.25;2615265;31;20094;-48
2021/09/03 02:22:32;;;;;;;31.38;20.02;;;;;;;11.30;100.00;101498.50;2614571;31;20046;-47
2021/09/03 02:24:59;;;;;;;30.95;18.27;;;;;;;11.37;100.00;101497.91;2614562;36;20057;-46
2021/09/03 02:27:27;;;;;;;26.77;17.80;;;;;;;11.50;100.00;101496.63;2614170;36;20034;-45
2021/09/03 02:29:54;;;;;;;26.95;17.10;;;;;;;11.45;100.00;101491.34;2614285;36;20030;-44
2021/09/03 02:32:21;;;;;;;28.20;18.33;;;;;;;11.16;100.00;101489.44;2614202;36;20573;-46
2021/09/03 02:34:48;;;;;;;29.30;16.85;;;;;;;11.21;100.00;101483.66;2614451;31;20032;-46
2021/09/03 02:37:16;;;;;;;31.27;18.20;;;;;;;11.37;100.00;101481.63;2614221;31;20042;-45
2021/09/03 02:39:43;;;;;;;22.65;16.48;;;;;;;11.27;100.00;101482.13;2614744;31;20091;-48
2021/09/03 02:42:10;;;;;;;21.52;16.38;;;;;;;11.14;100.00;101481.72;2614156;31;20027;-45
2021/09/03 02:44:37;;;;;;;23.02;16.30;;;;;;;11.15;100.00;101490.25;2616545;31;20038;-47
2021/09/03 02:47:04;;;;;;;25.52;17.75;;;;;;;11.00;100.00;101488.03;2614499;36;20064;-46
2021/09/03 02:49:32;;;;;;;25.80;15.98;;;;;;;11.22;100.00;101475.13;2614056;36;20038;-49
2021/09/03 02:51:59;;;;;;;25.02;16.52;;;;;;;11.13;100.00;101477.38;2614906;31;20034;-44
2021/09/03 02:54:26;;;;;;;18.85;14.90;;;;;;;11.30;100.00;101474.56;2614096;36;20038;-44
2021/09/03 02:56:53;;;;;;;23.73;16.05;;;;;;;11.34;100.00;101479.84;2614028;36;20079;-47
2021/09/03 02:59:20;;;;;;;22.92;15.52;;;;;;;11.18;100.00;101464.72;2613943;36;20031;-44
2021/09/03 03:01:47;;;;;;;23.15;16.08;;;;;;;11.20;100.00;101471.66;2614093;36;20038;-48
2021/09/03 03:04:14;;;;;;;22.98;15.68;;;;;;;11.19;100.00;101457.09;2614742;31;20435;-47
2021/09/03 03:06:42;;;;;;;21.95;15.75;;;;;;;11.39;100.00;101462.91;2613869;36;20079;-48
2021/09/03 03:09:09;;;;;;;20.77;15.82;;;;;;;11.14;100.00;101455.19;2614705;31;20055;-49
2021/09/03 03:11:36;;;;;;;23.13;16.40;;;;;;;10.88;100.00;101442.31;2614623;31;20035;-46
2021/09/03 03:14:14;;;;;;;25.15;17.77;;;;;;;10.93;100.00;101443.34;2615156;31;20034;-48
2021/09/03 03:16:42;;;;;;;26.30;15.82;;;;;;;10.90;100.00;101440.66;2614896;31;20030;-46
2021/09/03 03:19:10;;;;;;;25.02;16.88;;;;;;;10.83;100.00;101433.59;2616357;31;20688;-50
2021/09/03 03:21:37;;;;;;;22.40;16.52;;;;;;;11.08;100.00;101443.00;2614226;36;20056;-48
2021/09/03 03:24:05;;;;;;;20.63;15.93;;;;;;;11.25;100.00;101445.31;2614443;36;20862;-45
2021/09/03 03:26:32;;;;;;;22.67;15.43;;;;;;;11.22;100.00;101438.38;2615007;31;20039;-48
2021/09/03 03:28:59;;;;;;;27.48;17.92;;;;;;;11.41;100.00;101435.63;2614725;31;20038;-49
2021/09/03 03:31:26;;;;;;;26.73;18.50;;;;;;;11.37;100.00;101435.47;2613817;36;20065;-48
2021/09/03 03:33:53;;;;;;;25.90;17.52;;;;;;;11.57;100.00;101433.59;2614860;36;20565;-48
2021/09/03 03:36:20;;;;;;;26.52;16.95;;;;;;;11.56;100.00;101430.16;2614619;36;20466;-46
2021/09/03 03:38:47;;;;;;;28.67;19.00;;;;;;;11.44;100.00;101424.59;2614541;31;20037;-47
2021/09/03 03:41:14;;;;;;;28.80;20.42;;;;;;;11.53;100.00;101422.34;2614362;31;20034;-48
2021/09/03 03:43:41;;;;;;;30.23;19.70;;;;;;;11.56;100.00;101422.47;2614756;31;20049;-46
2021/09/03 03:46:08;;;;;;;30.45;19.85;;;;;;;11.65;100.00;101419.34;2616248;31;20875;-44
2021/09/03 03:48:36;;;;;;;36.50;22.88;;;;;;;11.59;100.00;101416.53;2615400;31;20041;-45
2021/09/03 03:51:04;;;;;;;37.67;20.25;;;;;;;11.64;100.00;101418.44;2614679;36;20030;-50
2021/09/03 03:53:31;;;;;;;32.88;20.73;;;;;;;11.43;100.00;101405.78;2614761;36;20038;-51
2021/09/03 03:55:58;;;;;;;34.42;21.00;;;;;;;11.39;100.00;101411.63;2615312;36;20037;-48
2021/09/03 03:58:26;;;;;;;29.52;19.83;;;;;;;11.24;100.00;101406.00;2615066;31;20057;-47
2021/09/03 04:00:53;;;;;;;29.88;19.45;;;;;;;11.03;100.00;101407.78;2615582;31;20023;-45
2021/09/03 04:03:20;;;;;;;28.67;18.98;;;;;;;11.00;100.00;101411.13;2615550;31;20049;-46
2021/09/03 04:05:47;;;;;;;25.08;16.98;;;;;;;10.87;100.00;101409.81;2614611;36;20034;-47
2021/09/03 04:08:15;;;;;;;29.50;17.77;;;;;;;10.67;100.00;101403.09;2614443;36;20634;-50
2021/09/03 04:10:42;;;;;;;21.55;15.77;;;;;;;10.92;100.00;101400.59;2615440;31;20328;-49
2021/09/03 04:13:09;;;;;;;26.80;14.85;;;;;;;10.74;100.00;101393.94;2614760;36;20026;-50
2021/09/03 04:15:36;;;;;;;23.13;14.50;;;;;;;10.51;100.00;101390.53;2616185;31;20849;-46
2021/09/03 04:18:03;;;;;;;21.95;16.80;;;;;;;10.58;100.00;101390.81;2614975;36;20087;-45
2021/09/03 04:20:30;;;;;;;22.42;16.70;;;;;;;10.75;100.00;101390.56;2615537;36;20034;-47
2021/09/03 04:22:58;;;;;;;21.25;15.90;;;;;;;10.70;100.00;101395.53;2616044;31;20019;-50
2021/09/03 04:25:25;;;;;;;21.40;15.85;;;;;;;10.86;100.00;101387.59;2616852;31;20841;-48
2021/09/03 04:27:52;;;;;;;19.10;14.95;;;;;;;10.77;100.00;101384.69;2615039;36;20049;-44
2021/09/03 04:30:19;;;;;;;24.38;16.35;;;;;;;10.68;100.00;101376.69;2615383;31;20050;-47
2021/09/03 04:32:46;;;;;;;30.42;19.95;;;;;;;10.99;100.00;101372.63;2616182;31;20034;-49
2021/09/03 04:35:13;;;;;;;20.85;16.08;;;;;;;10.98;100.00;101373.44;2615763;36;20537;-47
2021/09/03 04:37:44;;;;;;;21.10;16.27;;;;;;;10.70;100.00;101372.47;2614944;36;20057;-48
2021/09/03 04:40:13;;;;;;;21.92;15.25;;;;;;;10.65;100.00;101376.56;2616009;31;20038;-47
2021/09/03 04:42:40;;;;;;;21.58;16.75;;;;;;;10.57;100.00;101371.13;2615223;36;20053;-43
2021/09/03 04:45:08;;;;;;;20.33;15.80;;;;;;;10.76;100.00;101372.69;2615565;31;20027;-49
2021/09/03 04:47:37;;;;;;;21.17;16.23;;;;;;;10.57;100.00;101372.84;2614833;36;20034;-43
2021/09/03 04:50:06;;;;;;;17.80;14.60;;;;;;;10.90;100.00;101368.03;2615426;36;20049;-42
2021/09/03 04:52:33;;;;;;;20.75;16.10;;;;;;;10.96;100.00;101364.03;2615384;31;20590;-48
2021/09/03 04:55:00;;;;;;;23.80;16.83;;;;;;;11.04;100.00;101360.84;2615652;31;20034;-46
2021/09/03 04:57:28;;;;;;;22.67;16.85;;;;;;;10.98;100.00;101364.06;2615628;31;20030;-44
2021/09/03 04:59:55;;;;;;;22.30;17.05;;;;;;;10.89;100.00;101358.63;2615204;36;20038;-44
2021/09/03 05:02:22;;;;;;;21.45;16.25;;;;;;;11.01;100.00;101358.19;2615942;31;20031;-45
2021/09/03 05:04:49;;;;;;;25.13;17.77;;;;;;;11.08;100.00;101353.31;2615718;36;20553;-45
2021/09/03 05:07:16;;;;;;;26.05;17.60;;;;;;;11.08;100.00;101355.88;2616103;31;20030;-43
2021/09/03 05:09:44;;;;;;;25.25;18.10;;;;;;;11.14;100.00;101362.91;2615159;36;20042;-43
2021/09/03 05:12:11;;;;;;;24.50;17.90;;;;;;;11.13;100.00;101358.59;2614981;36;20030;-44
2021/09/03 05:14:38;;;;;;;25.50;18.42;;;;;;;11.06;100.00;101357.53;2615531;36;20837;-45
2021/09/03 05:17:05;;;;;;;25.00;18.35;;;;;;;11.12;100.00;101361.97;2615226;36;20034;-45
2021/09/03 05:19:32;;;;;;;27.38;19.00;;;;;;;11.04;100.00;101358.28;2615696;31;20035;-50
2021/09/03 05:21:59;;;;;;;28.23;18.85;;;;;;;10.98;100.00;101351.25;2615183;36;20034;-42
2021/09/03 05:24:26;;;;;;;31.35;19.42;;;;;;;11.22;100.00;101354.63;2616142;31;20043;-42
2021/09/03 05:26:53;;;;;;;32.05;20.33;;;;;;;11.10;100.00;101349.13;2616382;31;20542;-42
2021/09/03 05:29:20;;;;;;;29.10;20.38;;;;;;;11.29;100.00;101362.56;2614929;36;20046;-50
2021/09/03 05:31:47;;;;;;;29.67;19.50;;;;;;;11.35;100.00;101355.94;2615717;31;20450;-44
2021/09/03 05:34:14;;;;;;;26.77;18.65;;;;;;;11.33;100.00;101357.59;2615641;36;20609;-46
2021/09/03 05:36:42;;;;;;;26.38;17.88;;;;;;;11.52;100.00;101359.06;2614070;36;20065;-45
2021/09/03 05:39:09;;;;;;;28.70;19.27;;;;;;;11.48;100.00;101358.09;2614979;36;20061;-45
2021/09/03 05:41:36;;;;;;;23.15;17.38;;;;;;;11.48;100.00;101358.09;2615430;31;20065;-44
2021/09/03 05:44:03;;;;;;;29.92;18.65;;;;;;;11.58;100.00;101363.50;2615071;31;20072;-43
2021/09/03 05:46:30;;;;;;;27.13;17.83;;;;;;;11.59;100.00;101362.69;2615229;36;20038;-43
2021/09/03 05:48:58;;;;;;;27.05;19.02;;;;;;;11.48;100.00;101364.91;2614725;31;20031;-49
2021/09/03 05:51:25;;;;;;;29.90;19.20;;;;;;;11.61;100.00;101354.22;2613842;36;20053;-45
2021/09/03 05:53:52;;;;;;;30.95;20.38;;;;;;;11.61;100.00;101354.22;2616554;31;20413;-44
2021/09/03 05:56:19;;;;;;;28.40;19.33;;;;;;;11.70;100.00;101351.94;2614700;36;20860;-46
2021/09/03 05:58:46;;;;;;;27.83;19.35;;;;;;;11.80;100.00;101360.81;2614012;36;20041;-47
